Time;durP1;ratioP1;P1;durP2;ratioP2;P2;SDS_P1;SDS_P2;PMS_P1;PMS_P2;Temp;Humidity;BMP_temperature;BMP_pressure;BME280_temperature;BME280_humidity;BME280_pressure;Samples;Min_cycle;Max_cycle;Signal;HPM_P1;HPM_P2
2022/09/27 00:02:14;;;;;;;1999.90;999.90;;;15.30;99.90;;;;;;5112257;28;20297;-81
2022/09/27 00:04:39;;;;;;;1999.90;999.90;;;16.10;99.90;;;;;;5112905;28;20051;-81
2022/09/27 00:07:06;;;;;;;1999.90;999.90;;;16.00;99.90;;;;;;5113210;28;20043;-81
2022/09/27 00:09:32;;;;;;;1999.90;999.90;;;16.30;99.90;;;;;;5113911;28;20480;-81
2022/09/27 00:11:57;;;;;;;1999.90;999.90;;;15.20;99.90;;;;;;5094133;28;20047;-82
2022/09/27 00:14:23;;;;;;;1999.90;999.90;;;15.40;99.90;;;;;;5092913;28;20066;-82
2022/09/27 00:16:49;;;;;;;1999.90;999.90;;;15.20;99.90;;;;;;5111905;28;20044;-81
2022/09/27 00:19:18;;;;;;;1999.90;999.90;;;15.80;99.90;;;;;;5111465;28;20048;-82
2022/09/27 00:21:45;;;;;;;1999.90;999.90;;;16.00;99.90;;;;;;5112931;28;20557;-81
2022/09/27 00:24:16;;;;;;;1999.90;999.90;;;15.90;99.90;;;;;;5110846;28;20086;-82
2022/09/27 00:26:42;;;;;;;1999.90;999.90;;;16.10;99.90;;;;;;5093288;28;20040;-82
2022/09/27 00:29:09;;;;;;;1999.90;999.90;;;15.70;99.90;;;;;;5112430;28;20468;-82
2022/09/27 00:31:36;;;;;;;1999.90;999.90;;;16.20;99.90;;;;;;5112542;28;20385;-82
2022/09/27 00:34:03;;;;;;;1999.90;999.90;;;15.40;99.90;;;;;;5111930;28;20047;-82
2022/09/27 00:36:30;;;;;;;1999.90;999.90;;;15.40;99.90;;;;;;5112104;28;20230;-82
2022/09/27 00:38:58;;;;;;;1999.90;999.90;;;15.50;99.90;;;;;;5111761;28;20043;-82
2022/09/27 00:41:31;;;;;;;1999.90;999.90;;;15.30;99.90;;;;;;5093384;28;20044;-82
2022/09/27 00:44:32;;;;;;;1999.90;999.90;;;15.80;99.90;;;;;;5111951;28;20118;-81
2022/09/27 00:47:20;;;;;;;1999.90;999.90;;;16.20;99.90;;;;;;5094397;28;20060;-81
2022/09/27 00:50:07;;;;;;;1999.90;999.90;;;16.10;99.90;;;;;;5112608;28;20047;-82
2022/09/27 00:52:42;;;;;;;1999.90;999.90;;;16.00;99.90;;;;;;5112286;28;20052;-82
2022/09/27 00:55:16;;;;;;;1999.90;999.90;;;16.10;99.90;;;;;;5111069;28;20422;-81
2022/09/27 00:57:43;;;;;;;1999.90;999.90;;;16.00;99.90;;;;;;5111180;28;20065;-81
2022/09/27 01:00:11;;;;;;;1999.90;999.90;;;15.40;99.90;;;;;;5094068;28;20093;-81
2022/09/27 01:02:40;;;;;;;1999.90;999.90;;;15.90;99.90;;;;;;5112647;28;20090;-81
2022/09/27 01:05:08;;;;;;;1999.90;999.90;;;15.30;99.90;;;;;;5111680;28;20039;-81
2022/09/27 01:07:34;;;;;;;1999.90;999.90;;;15.90;99.90;;;;;;5111412;28;20055;-81
2022/09/27 01:10:00;;;;;;;1999.90;999.90;;;15.40;99.90;;;;;;5111448;28;20055;-81
2022/09/27 01:12:52;;;;;;;1999.90;999.90;;;16.00;99.90;;;;;;5111405;28;20108;-81
2022/09/27 01:15:49;;;;;;;1999.90;999.90;;;15.20;99.90;;;;;;5110441;28;20048;-81
2022/09/27 01:18:34;;;;;;;1999.90;999.90;;;16.10;99.90;;;;;;5111276;28;20091;-81
2022/09/27 01:21:10;;;;;;;1999.90;999.90;;;15.70;99.90;;;;;;5111084;28;20046;-81
2022/09/27 01:23:44;;;;;;;1999.90;999.90;;;15.20;99.90;;;;;;5111217;28;20047;-81
2022/09/27 01:26:35;;;;;;;1999.90;999.90;;;16.20;99.90;;;;;;5114011;28;20047;-81
2022/09/27 01:29:14;;;;;;;1999.90;999.90;;;15.40;99.90;;;;;;5101345;28;20138;-81
2022/09/27 01:31:45;;;;;;;1999.90;999.90;;;15.00;99.90;;;;;;5097707;28;20126;-81
2022/09/27 01:34:29;;;;;;;1999.90;999.90;;;15.00;99.90;;;;;;5115566;28;20043;-81
2022/09/27 01:37:07;;;;;;;1999.90;999.90;;;15.30;99.90;;;;;;5115331;28;20449;-80
2022/09/27 01:39:51;;;;;;;1999.90;999.90;;;15.00;99.90;;;;;;5115543;28;20050;-81
2022/09/27 01:42:36;;;;;;;1999.90;999.90;;;15.60;99.90;;;;;;5114443;28;20499;-81
2022/09/27 01:45:18;;;;;;;1999.90;999.90;;;15.90;99.90;;;;;;5115511;28;20126;-81
2022/09/27 01:47:57;;;;;;;1999.90;999.90;;;14.70;99.90;;;;;;5116040;28;20049;-81
2022/09/27 01:50:35;;;;;;;1999.90;999.90;;;15.30;99.90;;;;;;5115434;28;20047;-81
2022/09/27 01:53:22;;;;;;;1999.90;999.90;;;15.30;99.90;;;;;;5114456;28;20472;-81
2022/09/27 01:55:50;;;;;;;1999.90;999.90;;;15.10;99.90;;;;;;5115884;28;20495;-81
2022/09/27 01:58:29;;;;;;;1999.90;999.90;;;15.90;99.90;;;;;;5097078;28;20047;-80
2022/09/27 02:00:56;;;;;;;1999.90;999.90;;;15.90;99.90;;;;;;5114972;28;20042;-81
2022/09/27 02:03:32;;;;;;;1999.90;999.90;;;15.10;99.90;;;;;;5096289;28;20104;-81
2022/09/27 02:06:07;;;;;;;1999.90;999.90;;;15.20;99.90;;;;;;5115679;28;20284;-81
2022/09/27 02:08:41;;;;;;;1999.90;999.90;;;15.40;99.90;;;;;;5096734;28;20043;-81
2022/09/27 02:11:13;;;;;;;1999.90;999.90;;;16.00;99.90;;;;;;5114306;28;20051;-81
2022/09/27 02:13:57;;;;;;;1999.90;999.90;;;15.40;99.90;;;;;;5079340;28;20061;-81
2022/09/27 02:16:41;;;;;;;1999.90;999.90;;;15.40;99.90;;;;;;5114467;28;20459;-81
2022/09/27 02:19:19;;;;;;;1999.90;999.90;;;16.40;99.90;;;;;;5113420;28;20059;-81
2022/09/27 02:21:59;;;;;;;1999.90;999.90;;;15.20;99.90;;;;;;5115425;28;20062;-80
2022/09/27 02:24:39;;;;;;;1999.90;999.90;;;15.70;99.90;;;;;;5114124;28;20495;-81
2022/09/27 02:27:32;;;;;;;1999.90;999.90;;;15.90;99.90;;;;;;5114205;28;20434;-81
2022/09/27 02:30:07;;;;;;;1999.90;999.90;;;16.00;99.90;;;;;;5096381;28;20409;-81
2022/09/27 02:32:33;;;;;;;1999.90;999.90;;;15.90;99.90;;;;;;5114337;28;20058;-81
2022/09/27 02:35:05;;;;;;;1999.90;999.90;;;15.20;99.90;;;;;;5096770;28;20039;-81
2022/09/27 02:37:31;;;;;;;1999.90;999.90;;;15.80;99.90;;;;;;5095022;28;20488;-81
2022/09/27 02:39:57;;;;;;;1999.90;999.90;;;15.50;99.90;;;;;;5114552;28;20488;-80
2022/09/27 02:42:23;;;;;;;1999.90;999.90;;;15.60;99.90;;;;;;5113549;28;20047;-80
2022/09/27 02:44:49;;;;;;;1999.90;999.90;;;15.70;99.90;;;;;;5097099;28;20047;-81
2022/09/27 02:47:27;;;;;;;1999.90;999.90;;;15.40;99.90;;;;;;5114768;28;20041;-80
2022/09/27 02:50:05;;;;;;;1999.90;999.90;;;15.40;99.90;;;;;;5114582;28;20051;-80
2022/09/27 02:52:36;;;;;;;1999.90;999.90;;;15.20;99.90;;;;;;5114172;28;20047;-80
2022/09/27 02:55:20;;;;;;;1999.90;999.90;;;15.20;99.90;;;;;;5114599;28;20055;-80
2022/09/27 02:58:19;;;;;;;1999.90;999.90;;;15.70;99.90;;;;;;5113431;28;20054;-79
2022/09/27 03:00:53;;;;;;;1999.90;999.90;;;15.40;99.90;;;;;;5114120;28;20457;-80
2022/09/27 03:03:51;;;;;;;1999.90;999.90;;;15.30;99.90;;;;;;5113457;28;20050;-79
2022/09/27 03:06:21;;;;;;;1999.90;999.90;;;15.50;99.90;;;;;;5113979;28;20528;-79
2022/09/27 03:08:47;;;;;;;1999.90;999.90;;;15.20;99.90;;;;;;5114017;28;20079;-78
2022/09/27 03:11:13;;;;;;;1999.90;999.90;;;15.10;99.90;;;;;;5112856;28;20079;-79
2022/09/27 03:13:38;;;;;;;1999.90;999.90;;;15.20;99.90;;;;;;5112996;28;20229;-79
2022/09/27 03:16:05;;;;;;;1999.90;999.90;;;15.70;99.90;;;;;;5114183;28;20052;-80
2022/09/27 03:18:31;;;;;;;1999.90;999.90;;;15.70;99.90;;;;;;5114274;28;20500;-80
2022/09/27 03:20:57;;;;;;;1999.90;999.90;;;15.70;99.90;;;;;;5114301;28;20043;-80
2022/09/27 03:23:23;;;;;;;1999.90;999.90;;;15.00;99.90;;;;;;5095426;28;20100;-81
2022/09/27 03:25:49;;;;;;;1999.90;999.90;;;15.70;99.90;;;;;;5113701;28;20087;-81
2022/09/27 03:28:15;;;;;;;1999.90;999.90;;;15.10;99.90;;;;;;5112887;28;20126;-81
2022/09/27 03:30:41;;;;;;;1999.90;999.90;;;15.00;99.90;;;;;;5114123;28;20205;-81
2022/09/27 03:33:08;;;;;;;1999.90;999.90;;;15.70;99.90;;;;;;5113127;28;20075;-80
2022/09/27 03:35:34;;;;;;;1999.90;999.90;;;15.00;99.90;;;;;;5113142;28;20519;-81
2022/09/27 03:38:00;;;;;;;1999.90;999.90;;;15.60;99.90;;;;;;5112971;28;20089;-82
2022/09/27 03:40:26;;;;;;;1999.90;999.90;;;15.10;99.90;;;;;;5113464;28;20077;-81
2022/09/27 03:42:52;;;;;;;1999.90;999.90;;;15.70;99.90;;;;;;5112153;28;20048;-81
2022/09/27 03:45:17;;;;;;;1999.90;999.90;;;14.90;99.90;;;;;;5112726;28;20275;-81
2022/09/27 03:47:43;;;;;;;1999.90;999.90;;;14.90;99.90;;;;;;5112795;28;20121;-81
2022/09/27 03:50:10;;;;;;;1999.90;999.90;;;15.20;99.90;;;;;;5113190;28;20555;-80
2022/09/27 03:52:36;;;;;;;1999.90;999.90;;;14.90;99.90;;;;;;5077798;28;20066;-80
2022/09/27 03:55:03;;;;;;;1999.90;999.90;;;14.90;99.90;;;;;;5094731;28;20369;-80
2022/09/27 03:57:29;;;;;;;1999.90;999.90;;;15.50;99.90;;;;;;5093307;28;20503;-81
2022/09/27 03:59:57;;;;;;;1999.90;999.90;;;14.90;99.90;;;;;;5112094;28;20403;-80
2022/09/27 04:02:23;;;;;;;1999.90;999.90;;;15.30;99.90;;;;;;5113068;28;20173;-79
2022/09/27 04:04:48;;;;;;;1999.90;999.90;;;15.00;99.90;;;;;;5111999;28;20084;-79
2022/09/27 04:07:16;;;;;;;1999.90;999.90;;;14.90;99.90;;;;;;5111797;28;20458;-79
2022/09/27 04:09:43;;;;;;;1999.90;999.90;;;15.10;99.90;;;;;;5112381;28;20044;-80
2022/09/27 04:12:09;;;;;;;1999.90;999.90;;;14.90;99.90;;;;;;5112632;28;20556;-78
2022/09/27 04:14:34;;;;;;;1999.90;999.90;;;15.50;99.90;;;;;;5112022;28;20079;-79
2022/09/27 04:17:00;;;;;;;1999.90;999.90;;;15.20;99.90;;;;;;5094837;28;20529;-79
2022/09/27 04:19:26;;;;;;;1999.90;999.90;;;15.40;99.90;;;;;;5112776;28;20403;-78
2022/09/27 04:21:51;;;;;;;1999.90;999.90;;;15.30;99.90;;;;;;5112370;28;20500;-79
2022/09/27 04:24:17;;;;;;;1999.90;999.90;;;15.50;99.90;;;;;;5112373;28;20396;-79
2022/09/27 04:26:43;;;;;;;1999.90;999.90;;;15.50;99.90;;;;;;5112028;28;20052;-79
2022/09/27 04:29:09;;;;;;;1999.90;999.90;;;15.50;99.90;;;;;;5094300;28;20089;-79
2022/09/27 04:31:36;;;;;;;1999.90;999.90;;;14.80;99.90;;;;;;5112403;28;20039;-80
2022/09/27 04:34:04;;;;;;;1999.90;999.90;;;15.10;99.90;;;;;;5112668;28;20090;-79
2022/09/27 04:36:30;;;;;;;1999.90;999.90;;;15.50;99.90;;;;;;5094736;28;20404;-79
2022/09/27 04:38:58;;;;;;;1999.90;999.90;;;15.30;99.90;;;;;;5095005;28;20050;-79
2022/09/27 04:41:24;;;;;;;;;;;15.50;99.90;;;;;;5113391;28;20051;-79
2022/09/27 04:43:54;;;;;;;1999.90;999.90;;;15.00;99.90;;;;;;5094605;28;20390;-79
2022/09/27 04:46:20;;;;;;;1999.90;999.90;;;14.90;99.90;;;;;;5112312;28;20487;-79
2022/09/27 04:48:49;;;;;;;1999.90;999.90;;;15.10;99.90;;;;;;5112374;28;20043;-79
2022/09/27 04:51:16;;;;;;;1999.90;999.90;;;15.50;99.90;;;;;;5112278;28;20122;-79
2022/09/27 04:53:43;;;;;;;1999.90;999.90;;;15.40;99.90;;;;;;5112952;28;20122;-78
2022/09/27 04:56:10;;;;;;;1999.90;999.90;;;15.40;99.90;;;;;;5113148;28;20082;-78
2022/09/27 04:58:36;;;;;;;1999.90;999.90;;;15.40;99.90;;;;;;5112191;28;20036;-79
2022/09/27 05:01:03;;;;;;;1999.90;999.90;;;15.40;99.90;;;;;;5111194;28;20058;-79
2022/09/27 05:03:30;;;;;;;1999.90;999.90;;;14.90;99.90;;;;;;5112587;28;20042;-78
2022/09/27 05:05:56;;;;;;;1999.90;999.90;;;14.90;99.90;;;;;;5112225;28;20042;-81
2022/09/27 05:08:22;;;;;;;1999.90;999.90;;;14.80;99.90;;;;;;5112275;28;20035;-78
2022/09/27 05:10:48;;;;;;;1999.90;999.90;;;15.10;99.90;;;;;;5112739;28;20035;-78
2022/09/27 05:13:14;;;;;;;1999.90;999.90;;;15.10;99.90;;;;;;5112524;28;20043;-80
2022/09/27 05:15:40;;;;;;;1999.90;999.90;;;14.60;99.90;;;;;;5094189;28;20092;-79
2022/09/27 05:18:09;;;;;;;1999.90;999.90;;;14.50;99.90;;;;;;5112639;28;20051;-79
2022/09/27 05:20:36;;;;;;;1999.90;999.90;;;15.20;99.90;;;;;;5113213;28;20043;-79
2022/09/27 05:23:03;;;;;;;1999.90;999.90;;;14.70;99.90;;;;;;5112880;28;20044;-78
2022/09/27 05:25:30;;;;;;;1999.90;999.90;;;15.10;99.90;;;;;;5112500;28;20040;-77
2022/09/27 05:27:57;;;;;;;1999.90;999.90;;;14.60;99.90;;;;;;5111934;28;20276;-76
2022/09/27 05:30:24;;;;;;;1999.90;999.90;;;14.50;99.90;;;;;;5095014;28;20088;-77
2022/09/27 05:32:50;;;;;;;1999.90;999.90;;;14.60;99.90;;;;;;5094524;28;20484;-79
2022/09/27 05:35:19;;;;;;;1999.90;999.90;;;15.00;99.90;;;;;;5112774;28;20043;-79
2022/09/27 05:37:52;;;;;;;1999.90;999.90;;;14.80;99.90;;;;;;5112120;28;20136;-80
2022/09/27 05:40:18;;;;;;;1999.90;999.90;;;14.50;99.90;;;;;;5094067;28;20043;-80
2022/09/27 05:42:44;;;;;;;1999.90;999.90;;;15.20;99.90;;;;;;5077477;28;20353;-80
2022/09/27 05:45:09;;;;;;;1999.90;999.90;;;15.10;99.90;;;;;;5112783;28;20040;-80
2022/09/27 05:47:35;;;;;;;1999.90;999.90;;;15.10;99.90;;;;;;5112802;28;20108;-80
2022/09/27 05:50:01;;;;;;;1999.90;999.90;;;14.90;99.90;;;;;;5093964;28;20050;-80
2022/09/27 05:52:27;;;;;;;1999.90;999.90;;;14.60;99.90;;;;;;5112033;28;20118;-80
2022/09/27 05:54:53;;;;;;;1999.90;999.90;;;15.20;99.90;;;;;;5092786;28;20036;-80
2022/09/27 05:57:18;;;;;;;1999.90;999.90;;;15.20;99.90;;;;;;5111461;28;20074;-80
2022/09/27 05:59:44;;;;;;;1999.90;999.90;;;14.70;99.90;;;;;;5112007;28;20113;-76
2022/09/27 06:02:10;;;;;;;1999.90;999.90;;;15.20;99.90;;;;;;5112420;28;20119;-80
2022/09/27 06:04:36;;;;;;;1999.90;999.90;;;14.60;99.90;;;;;;5112511;28;20044;-80
2022/09/27 06:07:01;;;;;;;1999.90;999.90;;;14.50;99.90;;;;;;5111718;28;20310;-80
2022/09/27 06:09:28;;;;;;;1999.90;999.90;;;14.50;99.90;;;;;;5112469;28;20060;-80
2022/09/27 06:11:53;;;;;;;1999.90;999.90;;;14.60;99.90;;;;;;5114020;28;20040;-80
2022/09/27 06:14:19;;;;;;;1999.90;999.90;;;14.50;99.90;;;;;;5116168;28;20047;-80
2022/09/27 06:16:45;;;;;;;1999.90;999.90;;;14.80;99.90;;;;;;5114779;28;20118;-80
2022/09/27 06:19:11;;;;;;;1999.90;999.90;;;14.60;99.90;;;;;;5115941;28;20218;-79
2022/09/27 06:21:36;;;;;;;1999.90;999.90;;;14.60;99.90;;;;;;5115821;28;20039;-80
2022/09/27 06:24:02;;;;;;;1999.90;999.90;;;14.60;99.90;;;;;;5115970;28;20047;-74
2022/09/27 06:26:28;;;;;;;1999.90;999.90;;;15.50;99.90;;;;;;5114458;28;20476;-80
2022/09/27 06:28:54;;;;;;;1999.90;999.90;;;14.80;99.90;;;;;;5097347;28;20422;-80
2022/09/27 06:31:20;;;;;;;1999.90;999.90;;;15.40;99.90;;;;;;5115306;28;20046;-80
2022/09/27 06:33:47;;;;;;;1999.90;999.90;;;15.10;99.90;;;;;;5115701;28;20044;-81
2022/09/27 06:36:14;;;;;;;1999.90;999.90;;;15.30;99.90;;;;;;5116132;28;20053;-80
2022/09/27 06:38:39;;;;;;;1999.90;999.90;;;15.50;99.90;;;;;;5097741;28;20047;-80
2022/09/27 06:41:05;;;;;;;1999.90;999.90;;;16.20;99.90;;;;;;5097542;28;20043;-80
2022/09/27 06:43:32;;;;;;;1999.90;999.90;;;16.00;99.90;;;;;;5097422;28;20503;-80
2022/09/27 06:46:05;;;;;;;1999.90;999.90;;;16.10;99.90;;;;;;5115652;28;20083;-80
2022/09/27 06:48:36;;;;;;;1999.90;999.90;;;15.70;99.90;;;;;;5097444;28;20492;-80
2022/09/27 06:51:02;;;;;;;1999.90;999.90;;;15.60;99.90;;;;;;5114958;28;20123;-80
2022/09/27 06:53:29;;;;;;;1999.90;999.90;;;15.70;99.90;;;;;;5115236;28;20090;-80
2022/09/27 06:55:59;;;;;;;1999.90;999.90;;;16.40;99.90;;;;;;5113781;28;20039;-80
2022/09/27 07:01:11;;;;;;;1999.90;999.90;;;16.00;99.90;;;;;;5115180;28;20047;-81
2022/09/27 07:03:40;;;;;;;1999.90;999.90;;;16.70;99.90;;;;;;5115587;28;20049;-80
2022/09/27 07:06:10;;;;;;;1999.90;999.90;;;16.70;99.90;;;;;;5115015;28;20062;-80
2022/09/27 07:08:37;;;;;;;1999.90;999.90;;;15.90;99.90;;;;;;5115687;28;20044;-80
2022/09/27 07:11:07;;;;;;;1999.90;999.90;;;16.30;99.90;;;;;;5096979;28;20122;-81
2022/09/27 07:13:36;;;;;;;1999.90;999.90;;;16.10;99.90;;;;;;5114678;28;20145;-80
2022/09/27 07:16:02;;;;;;;1999.90;999.90;;;16.10;99.90;;;;;;5115087;28;20130;-80
2022/09/27 07:18:28;;;;;;;1999.90;999.90;;;15.70;99.90;;;;;;5106652;28;20388;-80
2022/09/27 07:20:54;;;;;;;1999.90;999.90;;;16.00;99.90;;;;;;5094279;28;20048;-80
2022/09/27 07:23:20;;;;;;;1999.90;999.90;;;15.80;99.90;;;;;;5093759;28;20040;-80
2022/09/27 07:25:46;;;;;;;1999.90;999.90;;;15.90;99.90;;;;;;5093441;28;20044;-80
2022/09/27 07:28:17;;;;;;;1999.90;999.90;;;16.10;99.90;;;;;;5093993;28;20059;-80
2022/09/27 07:30:43;;;;;;;1999.90;999.90;;;16.40;99.90;;;;;;5094730;28;20476;-80
2022/09/27 07:33:09;;;;;;;1999.90;999.90;;;16.50;99.90;;;;;;5094189;28;20090;-79
2022/09/27 07:35:41;;;;;;;1999.90;999.90;;;16.00;99.90;;;;;;5094371;28;20083;-80
2022/09/27 07:38:11;;;;;;;1999.90;999.90;;;16.80;99.90;;;;;;5094194;28;20396;-80
2022/09/27 07:40:38;;;;;;;1999.90;999.90;;;16.20;99.90;;;;;;5093514;28;20067;-80
2022/09/27 07:43:04;;;;;;;1999.90;999.90;;;16.30;99.90;;;;;;5093706;28;20058;-80
2022/09/27 07:45:30;;;;;;;1999.90;999.90;;;16.80;99.90;;;;;;5093090;28;20178;-79
2022/09/27 07:47:56;;;;;;;1999.90;999.90;;;18.90;99.90;;;;;;5092939;28;20417;-80
2022/09/27 07:50:21;;;;;;;1999.90;999.90;;;19.10;99.90;;;;;;5093366;28;20052;-80
2022/09/27 07:52:51;;;;;;;1999.90;999.90;;;19.50;99.90;;;;;;5094205;28;20089;-80
2022/09/27 07:55:18;;;;;;;1999.90;999.90;;;21.40;99.90;;;;;;5093701;28;20118;-80
2022/09/27 07:57:45;;;;;;;1999.90;999.90;;;22.50;99.90;;;;;;5092594;28;20087;-80
2022/09/27 08:00:16;;;;;;;1999.90;999.90;;;21.50;99.90;;;;;;5093927;28;20047;-80
2022/09/27 08:02:43;;;;;;;1999.90;999.90;;;20.10;99.90;;;;;;5092899;28;20040;-80
2022/09/27 08:05:10;;;;;;;1999.90;999.90;;;20.20;99.90;;;;;;5092551;28;20052;-80
2022/09/27 08:07:37;;;;;;;1999.90;999.90;;;20.00;99.90;;;;;;5092447;28;20550;-80
2022/09/27 08:10:04;;;;;;;1999.90;999.90;;;19.80;99.90;;;;;;5093617;28;20067;-80
2022/09/27 08:12:30;;;;;;;1999.90;999.90;;;19.40;99.90;;;;;;5093738;28;20126;-80
2022/09/27 08:15:00;;;;;;;1999.90;999.90;;;20.00;99.90;;;;;;5094130;28;20552;-80
2022/09/27 08:17:29;;;;;;;1999.90;999.90;;;19.90;99.90;;;;;;5094998;28;20052;-79
2022/09/27 08:19:55;;;;;;;1999.90;999.90;;;19.50;99.90;;;;;;5093545;28;20110;-79
2022/09/27 08:22:21;;;;;;;1999.90;999.90;;;19.80;99.90;;;;;;5094816;28;20134;-80
2022/09/27 08:24:47;;;;;;;1999.90;999.90;;;20.30;99.90;;;;;;5093662;28;20514;-80
2022/09/27 08:27:14;;;;;;;1999.90;999.90;;;20.20;99.90;;;;;;5094090;28;20056;-80
2022/09/27 08:29:40;;;;;;;1999.90;999.90;;;19.50;99.90;;;;;;5094783;28;20193;-80
2022/09/27 08:32:12;;;;;;;1999.90;999.90;;;19.30;99.90;;;;;;5094604;28;20427;-81
2022/09/27 08:34:38;;;;;;;1999.90;999.90;;;20.00;99.90;;;;;;5093510;28;20134;-80
2022/09/27 08:37:04;;;;;;;1999.90;999.90;;;19.20;99.90;;;;;;5093883;28;20449;-81
2022/09/27 08:39:30;;;;;;;1999.90;999.90;;;19.50;99.90;;;;;;5094749;28;20081;-81
2022/09/27 08:42:11;;;;;;;1999.90;999.90;;;19.40;99.90;;;;;;5094404;28;20055;-80
2022/09/27 08:45:07;;;;;;;1999.90;999.90;;;19.10;99.90;;;;;;5093640;28;20050;-81
2022/09/27 08:48:10;;;;;;;1999.90;999.90;;;20.50;99.90;;;;;;5093116;28;20098;-81
2022/09/27 08:50:40;;;;;;;1999.90;999.90;;;20.00;99.90;;;;;;5030634;28;20041;-81
2022/09/27 08:53:20;;;;;;;1999.90;999.90;;;20.10;99.90;;;;;;5082649;28;20060;-81
2022/09/27 08:55:48;;;;;;;1999.90;999.90;;;19.20;99.90;;;;;;5093142;28;20050;-81
2022/09/27 08:58:50;;;;;;;1999.90;999.90;;;19.80;99.90;;;;;;5092197;28;20435;-82
2022/09/27 09:01:17;;;;;;;1999.90;999.90;;;19.30;99.90;;;;;;5090690;28;20131;-82
2022/09/27 09:03:56;;;;;;;1999.90;999.90;;;19.30;99.90;;;;;;5093028;28;20044;-82
2022/09/27 09:06:51;;;;;;;1999.90;999.90;;;19.00;99.90;;;;;;5092649;28;20470;-82
2022/09/27 09:09:32;;;;;;;1999.90;999.90;;;18.90;99.90;;;;;;5092360;28;20503;-82
2022/09/27 09:15:17;;;;;;;1999.90;999.90;;;18.00;99.90;;;;;;5092697;28;20052;-84
2022/09/27 09:18:08;;;;;;;1999.90;999.90;;;18.60;99.90;;;;;;5093160;28;20094;-83
2022/09/27 09:20:40;;;;;;;1999.90;999.90;;;20.00;99.90;;;;;;5095354;28;20503;-84
2022/09/27 09:23:06;;;;;;;1999.90;999.90;;;21.50;99.90;;;;;;5112106;28;20135;-83
2022/09/27 09:25:51;;;;;;;1999.90;999.90;;;21.90;99.90;;;;;;5113283;28;20123;-84
2022/09/27 09:28:35;;;;;;;1999.90;999.90;;;22.50;99.90;;;;;;5112096;28;20464;-84
2022/09/27 09:31:11;;;;;;;1999.90;999.90;;;22.70;99.90;;;;;;5113171;28;20048;-85
2022/09/27 09:33:51;;;;;;;1999.90;999.90;;;22.20;99.90;;;;;;5112987;28;20035;-85
2022/09/27 09:36:27;;;;;;;1999.90;999.90;;;23.10;99.90;;;;;;5094801;28;20090;-85
2022/09/27 09:39:04;;;;;;;1999.90;999.90;;;24.00;99.90;;;;;;5111876;28;20051;-85
2022/09/27 09:41:32;;;;;;;1999.90;999.90;;;23.10;99.90;;;;;;5112443;28;20126;-86
2022/09/27 09:44:00;;;;;;;;;;;21.80;99.90;;;;;;5095277;28;20051;-86
2022/09/27 09:46:29;;;;;;;1999.90;999.90;;;22.20;99.90;;;;;;5114549;28;19920;-85
2022/09/27 09:49:25;;;;;;;1999.90;999.90;;;21.30;99.90;;;;;;5116773;28;20039;-85
2022/09/27 09:51:55;;;;;;;1999.90;999.90;;;20.10;99.90;;;;;;5116888;28;20083;-86
2022/09/27 09:54:36;;;;;;;1999.90;999.90;;;21.50;99.90;;;;;;5116708;28;20090;-86
2022/09/27 09:57:09;;;;;;;1999.90;999.90;;;21.60;99.90;;;;;;5116915;28;20116;-87
2022/09/27 09:59:42;;;;;;;1999.90;999.90;;;21.10;99.90;;;;;;5116442;28;20069;-87
2022/09/27 10:02:20;;;;;;;1999.90;999.90;;;20.70;99.90;;;;;;5116548;28;20488;-87
2022/09/27 10:04:46;;;;;;;1999.90;999.90;;;20.60;99.90;;;;;;5116846;28;20052;-87
2022/09/27 10:07:13;;;;;;;1999.90;999.90;;;20.80;99.90;;;;;;5116912;28;20280;-87
2022/09/27 10:09:39;;;;;;;1999.90;999.90;;;20.30;99.90;;;;;;5116368;28;20488;-87
2022/09/27 10:12:05;;;;;;;1999.90;999.90;;;20.50;99.90;;;;;;5116615;28;20351;-88
2022/09/27 10:14:32;;;;;;;1999.90;999.90;;;20.40;99.90;;;;;;5081518;28;20445;-86
2022/09/27 10:17:02;;;;;;;1999.90;999.90;;;20.00;99.90;;;;;;5116331;28;20097;-85
2022/09/27 10:19:30;;;;;;;1999.90;999.90;;;19.30;99.90;;;;;;5116261;28;20086;-85
2022/09/27 10:22:25;;;;;;;1999.90;999.90;;;19.20;99.90;;;;;;5115934;28;20131;-82
2022/09/27 10:24:57;;;;;;;1999.90;999.90;;;18.70;99.90;;;;;;5107998;28;20108;-79
2022/09/27 10:27:25;;;;;;;1999.90;999.90;;;17.50;99.90;;;;;;5115830;28;20055;-79
2022/09/27 10:30:00;;;;;;;1999.90;999.90;;;18.30;99.90;;;;;;5098074;28;20052;-79
2022/09/27 10:32:35;;;;;;;1999.90;999.90;;;18.30;99.90;;;;;;5097416;28;20046;-80
2022/09/27 10:35:29;;;;;;;1999.90;999.90;;;17.40;99.90;;;;;;5098307;28;20059;-80
2022/09/27 10:38:15;;;;;;;1999.90;999.90;;;17.90;99.90;;;;;;5097901;28;20130;-80
2022/09/27 10:40:42;;;;;;;1999.90;999.90;;;17.30;99.90;;;;;;5097964;28;20056;-80
2022/09/27 10:43:30;;;;;;;1999.90;999.90;;;17.30;99.90;;;;;;5115604;28;20039;-79
2022/09/27 10:46:07;;;;;;;1999.90;999.90;;;17.40;99.90;;;;;;5116257;28;20408;-80
2022/09/27 10:48:34;;;;;;;1999.90;999.90;;;17.70;99.90;;;;;;5114500;28;20048;-80
2022/09/27 10:51:03;;;;;;;1999.90;999.90;;;18.70;99.90;;;;;;5114754;28;20051;-81
2022/09/27 10:53:31;;;;;;;1999.90;999.90;;;18.20;99.90;;;;;;5097306;28;20130;-80
2022/09/27 10:55:57;;;;;;;1999.90;999.90;;;18.80;99.90;;;;;;5097603;28;20449;-80
2022/09/27 10:58:29;;;;;;;1999.90;999.90;;;18.40;99.90;;;;;;5114162;28;20399;-80
2022/09/27 11:01:02;;;;;;;1999.90;999.90;;;18.70;99.90;;;;;;5097503;28;20122;-80
2022/09/27 11:03:35;;;;;;;1999.90;999.90;;;19.30;99.90;;;;;;5115169;28;20056;-80
2022/09/27 11:06:23;;;;;;;1999.90;999.90;;;18.80;99.90;;;;;;5114426;28;20516;-80
2022/09/27 11:08:53;;;;;;;1999.90;999.90;;;19.00;99.90;;;;;;5115250;28;20544;-77
2022/09/27 11:11:27;;;;;;;1999.90;999.90;;;18.30;99.90;;;;;;5097304;28;20083;-79
2022/09/27 11:14:20;;;;;;;1999.90;999.90;;;17.90;99.90;;;;;;5115247;28;20100;-77
2022/09/27 11:17:03;;;;;;;1999.90;999.90;;;17.70;99.90;;;;;;5111177;28;20492;-77
2022/09/27 11:19:47;;;;;;;1999.90;999.90;;;17.80;99.90;;;;;;5115314;28;20117;-78
2022/09/27 11:22:44;;;;;;;1999.90;999.90;;;17.30;99.90;;;;;;5113938;28;20055;-78
2022/09/27 11:25:16;;;;;;;1999.90;999.90;;;17.30;99.90;;;;;;5115048;28;20507;-78
2022/09/27 11:28:12;;;;;;;1999.90;999.90;;;17.80;99.90;;;;;;5114246;28;20492;-78
2022/09/27 11:31:06;;;;;;;1999.90;999.90;;;17.70;99.90;;;;;;5114904;28;20051;-78
2022/09/27 11:33:35;;;;;;;1999.90;999.90;;;18.30;99.90;;;;;;5114303;28;20052;-78
2022/09/27 11:36:27;;;;;;;1999.90;999.90;;;19.60;99.90;;;;;;5096732;28;20050;-78
2022/09/27 11:39:04;;;;;;;1999.90;999.90;;;20.40;99.90;;;;;;5092484;28;20146;-78
2022/09/27 11:42:13;;;;;;;1999.90;999.90;;;20.50;99.90;;;;;;5114071;28;20083;-78
2022/09/27 11:45:09;;;;;;;1999.90;999.90;;;21.60;99.90;;;;;;5114412;28;20035;-78
2022/09/27 11:47:47;;;;;;;1999.90;999.90;;;21.60;99.90;;;;;;5114402;28;20091;-78
2022/09/27 11:50:30;;;;;;;1999.90;999.90;;;21.70;99.90;;;;;;5114255;28;20518;-78
2022/09/27 11:53:26;;;;;;;1999.90;999.90;;;22.00;99.90;;;;;;5114673;28;20047;-79
2022/09/27 11:56:00;;;;;;;1999.90;999.90;;;21.70;99.90;;;;;;5065576;28;20060;-79
2022/09/27 11:58:55;;;;;;;1999.90;999.90;;;21.20;99.90;;;;;;5113922;28;20048;-79
2022/09/27 12:01:32;;;;;;;1999.90;999.90;;;20.50;99.90;;;;;;5114256;28;20430;-79
2022/09/27 12:04:11;;;;;;;1999.90;999.90;;;20.30;99.90;;;;;;5114363;28;20104;-80
2022/09/27 12:06:46;;;;;;;1999.90;999.90;;;20.40;99.90;;;;;;5112985;28;20047;-80
2022/09/27 12:09:30;;;;;;;1999.90;999.90;;;20.40;99.90;;;;;;5114090;28;20043;-79
2022/09/27 12:12:16;;;;;;;1999.90;999.90;;;19.70;99.90;;;;;;5112959;28;20044;-79
2022/09/27 12:14:48;;;;;;;1999.90;999.90;;;19.60;99.90;;;;;;5113830;28;20400;-80
2022/09/27 12:17:28;;;;;;;1999.90;999.90;;;20.10;99.90;;;;;;5114110;28;20051;-78
2022/09/27 12:20:01;;;;;;;1999.90;999.90;;;20.10;99.90;;;;;;5094132;28;20489;-78
2022/09/27 12:22:45;;;;;;;1999.90;999.90;;;20.00;99.90;;;;;;5093561;28;20052;-81
2022/09/27 12:25:15;;;;;;;1999.90;999.90;;;20.20;99.90;;;;;;5092544;28;20048;-79
2022/09/27 12:28:11;;;;;;;1999.90;999.90;;;20.20;99.90;;;;;;5093031;28;20440;-78
2022/09/27 12:30:41;;;;;;;1999.90;999.90;;;20.20;99.90;;;;;;5093598;28;20109;-78
2022/09/27 12:33:15;;;;;;;1999.90;999.90;;;19.70;99.90;;;;;;5092471;28;20070;-78